Time;durP1;ratioP1;P1;durP2;ratioP2;P2;SDS_P1;SDS_P2;PMS_P1;PMS_P2;Temp;Humidity;BMP_temperature;BMP_pressure;BME280_temperature;BME280_humidity;BME280_pressure;Samples;Min_cycle;Max_cycle;Signal;HPM_P1;HPM_P2
2023/06/02 00:01:32;;;;;;;9.82;3.35;;;;;;;-146.27;62.04;82940.66;5050170;28;20108;-69
2023/06/02 00:03:59;;;;;;;10.48;2.47;;;;;;;-146.27;63.04;82960.75;5050142;28;20033;-69
2023/06/02 00:06:26;;;;;;;12.43;3.00;;;;;;;-146.27;62.78;82972.81;5053272;28;20625;-68
2023/06/02 00:08:52;;;;;;;13.20;2.85;;;;;;;-146.27;64.00;82976.81;5051259;28;20021;-69
2023/06/02 00:11:19;;;;;;;13.23;3.50;;;;;;;-146.27;62.34;82978.84;5063900;28;20036;-68
2023/06/02 00:13:44;;;;;;;11.27;2.67;;;;;;;-146.27;61.46;82950.72;5047713;28;20098;-68
2023/06/02 00:16:10;;;;;;;14.88;2.95;;;;;;;-146.27;61.22;82942.66;5066067;28;20427;-68
2023/06/02 00:18:37;;;;;;;10.88;2.35;;;;;;;-146.27;61.58;82938.66;5062646;28;20546;-68
2023/06/02 00:21:09;;;;;;;10.70;2.75;;;;;;;-146.27;61.65;82934.63;5048263;28;20025;-69
2023/06/02 00:23:35;;;;;;;11.18;2.38;;;;;;;-146.27;60.49;82926.59;5050888;28;20025;-68
2023/06/02 00:26:01;;;;;;;11.35;2.47;;;;;;;-146.27;60.83;82944.69;5048801;28;20017;-69
2023/06/02 00:28:26;;;;;;;15.38;3.25;;;;;;;-146.27;60.38;82964.78;5059126;28;20393;-68
2023/06/02 00:30:52;;;;;;;7.45;2.28;;;;;;;-146.27;60.54;83017.00;5052898;28;20082;-67
2023/06/02 00:33:18;;;;;;;12.63;2.67;;;;;;;-146.27;59.23;82966.78;5053144;28;20028;-68
2023/06/02 00:35:44;;;;;;;11.95;2.60;;;;;;;-146.27;59.17;83000.94;5049863;28;20132;-67
2023/06/02 00:38:09;;;;;;;12.43;2.75;;;;;;;-146.27;59.11;83041.13;5056161;28;20195;-68
2023/06/02 00:40:35;;;;;;;16.23;2.85;;;;;;;-146.27;58.92;83019.03;5048258;28;20021;-68
2023/06/02 00:43:01;;;;;;;8.60;2.25;;;;;;;-146.27;59.07;83010.97;5039352;28;20032;-67
2023/06/02 00:45:27;;;;;;;13.02;3.05;;;;;;;-146.27;58.89;83023.03;5050059;28;20037;-68
2023/06/02 00:47:52;;;;;;;13.38;3.10;;;;;;;-146.27;59.38;83023.03;5051184;28;20021;-69
2023/06/02 00:50:18;;;;;;;8.32;2.88;;;;;;;-146.27;59.38;83029.06;5037078;28;20397;-70
2023/06/02 00:52:45;;;;;;;11.55;2.88;;;;;;;-146.27;59.22;83035.09;5044616;28;20059;-69
2023/06/02 00:55:11;;;;;;;13.50;2.50;;;;;;;-146.27;59.83;83063.22;5056662;28;20620;-68
2023/06/02 00:57:40;;;;;;;12.60;2.75;;;;;;;-146.27;59.71;83067.25;5058436;28;20029;-68
2023/06/02 01:00:07;;;;;;;14.23;3.10;;;;;;;-146.27;59.06;83085.31;5057395;28;20403;-68
2023/06/02 01:02:32;;;;;;;11.27;2.90;;;;;;;-146.27;60.26;82970.81;5064931;28;20032;-68
2023/06/02 01:05:00;;;;;;;10.65;2.67;;;;;;;-146.27;60.54;83073.25;5043660;28;20020;-68
2023/06/02 01:07:27;;;;;;;15.50;3.05;;;;;;;-146.27;60.77;83039.09;5051014;28;20032;-67
2023/06/02 01:09:56;;;;;;;14.15;3.05;;;;;;;-146.27;60.21;83023.03;5039684;28;20064;-68
2023/06/02 01:12:22;;;;;;;15.85;3.25;;;;;;;-146.27;60.55;83065.22;5044976;28;20052;-69
2023/06/02 01:14:47;;;;;;;7.63;2.28;;;;;;;-146.27;61.33;83035.09;5044291;28;20649;-68
2023/06/02 01:17:13;;;;;;;13.93;2.70;;;;;;;-146.27;61.94;83071.25;5049451;28;20036;-69
2023/06/02 01:19:40;;;;;;;14.32;2.78;;;;;;;-146.27;62.15;83095.38;5052275;28;20024;-68
2023/06/02 01:22:08;;;;;;;10.93;2.58;;;;;;;-146.27;62.21;83025.03;5054878;28;20165;-67
2023/06/02 01:24:39;;;;;;;13.25;3.10;;;;;;;-146.27;61.49;83079.28;5044026;28;20503;-68
2023/06/02 01:27:09;;;;;;;12.05;2.95;;;;;;;-146.27;61.03;83083.31;5068037;28;20093;-68
2023/06/02 01:29:36;;;;;;;10.68;2.55;;;;;;;-146.27;60.95;83099.38;5047181;28;20024;-68
2023/06/02 01:32:10;;;;;;;11.35;3.15;;;;;;;-146.27;60.29;83043.13;5040305;28;20013;-68
2023/06/02 01:34:43;;;;;;;7.82;2.25;;;;;;;-146.27;60.76;83095.38;5051841;28;20035;-68
2023/06/02 01:37:10;;;;;;;15.00;2.47;;;;;;;-146.27;60.81;83053.16;5037914;28;20029;-68
2023/06/02 01:39:38;;;;;;;11.13;2.47;;;;;;;-146.27;60.93;83051.16;5046632;28;20036;-68
2023/06/02 01:42:05;;;;;;;13.30;2.65;;;;;;;-146.27;60.67;83155.63;5036425;28;20018;-67
2023/06/02 01:44:32;;;;;;;8.13;2.80;;;;;;;-146.27;60.91;83095.38;5045886;28;20133;-69
2023/06/02 01:46:57;;;;;;;13.60;2.60;;;;;;;-146.27;61.71;83093.34;5043889;28;20108;-68
2023/06/02 01:49:22;;;;;;;8.48;2.47;;;;;;;-146.27;62.73;83065.22;5049039;28;20511;-68
2023/06/02 01:51:48;;;;;;;10.73;2.90;;;;;;;-146.27;62.21;83177.75;5050310;28;20024;-68
2023/06/02 01:54:13;;;;;;;11.75;2.17;;;;;;;-146.27;63.04;83103.41;5048266;28;20178;-67
2023/06/02 01:56:39;;;;;;;11.30;3.30;;;;;;;-146.27;62.57;83087.31;5045291;28;20078;-68
2023/06/02 01:59:04;;;;;;;8.55;2.35;;;;;;;-146.27;63.20;83131.53;5034525;28;20021;-68
2023/06/02 02:01:30;;;;;;;11.10;2.58;;;;;;;-146.27;63.43;83139.56;5049239;28;20041;-68
2023/06/02 02:03:56;;;;;;;9.07;2.67;;;;;;;-146.27;63.50;83107.41;5047638;28;20032;-68
2023/06/02 02:06:29;;;;;;;9.85;2.42;;;;;;;-146.27;63.29;83145.59;5051777;28;20121;-67
2023/06/02 02:08:58;;;;;;;11.32;2.67;;;;;;;-146.27;64.17;83111.44;5064796;28;20032;-67
2023/06/02 02:11:23;;;;;;;8.25;2.60;;;;;;;-146.27;63.65;83079.28;5045674;28;20040;-68
2023/06/02 02:13:49;;;;;;;7.45;2.30;;;;;;;-146.27;63.53;83133.53;5036485;28;20049;-67
2023/06/02 02:16:15;;;;;;;8.80;2.83;;;;;;;-146.27;64.13;83091.34;5049054;28;20033;-68
2023/06/02 02:18:40;;;;;;;11.50;2.42;;;;;;;-146.27;63.42;83087.31;5047544;28;20033;-68
2023/06/02 02:21:05;;;;;;;5.93;2.17;;;;;;;-146.27;63.04;83125.50;5049861;28;20029;-69
2023/06/02 02:23:31;;;;;;;12.02;2.30;;;;;;;-146.27;63.40;83079.28;5050731;28;20538;-68
2023/06/02 02:25:56;;;;;;;4.72;2.33;;;;;;;-146.27;63.54;83123.50;5046488;28;20597;-69
2023/06/02 02:28:22;;;;;;;8.77;2.38;;;;;;;-146.27;63.09;83099.38;5040424;28;20044;-69
2023/06/02 02:30:47;;;;;;;7.85;2.45;;;;;;;-146.27;62.87;83139.56;5039868;28;20029;-68
2023/06/02 02:33:13;;;;;;;13.07;2.33;;;;;;;-146.27;63.26;83137.56;5048845;28;20028;-68
2023/06/02 02:35:38;;;;;;;6.78;2.00;;;;;;;-146.27;63.52;83075.28;5048602;28;20094;-68
2023/06/02 02:38:04;;;;;;;10.88;2.80;;;;;;;-146.27;64.76;83097.38;5047305;28;21801;-70
2023/06/02 02:40:30;;;;;;;10.60;2.65;;;;;;;-146.27;64.47;83115.47;5047222;28;20036;-68
2023/06/02 02:42:55;;;;;;;7.20;2.40;;;;;;;-146.27;63.57;83145.59;5041713;28;20488;-69
2023/06/02 02:45:20;;;;;;;6.80;1.88;;;;;;;-146.27;63.68;83119.47;5039815;28;20024;-67
2023/06/02 02:47:46;;;;;;;7.93;2.40;;;;;;;-146.27;63.83;83083.31;5048747;28;20303;-68
2023/06/02 02:50:11;;;;;;;5.95;2.20;;;;;;;-146.27;64.73;83143.59;5041199;28;20174;-68
2023/06/02 02:52:36;;;;;;;15.43;2.38;;;;;;;-146.27;64.09;83155.63;5038375;28;20025;-69
2023/06/02 02:55:02;;;;;;;8.18;2.50;;;;;;;-146.27;65.15;83117.47;5042671;28;20357;-69
2023/06/02 02:57:28;;;;;;;12.75;2.47;;;;;;;-146.27;64.65;83085.31;5047775;28;20552;-67
2023/06/02 02:59:55;;;;;;;8.85;1.95;;;;;;;-146.27;63.98;83129.53;5045562;28;20033;-67
2023/06/02 03:02:21;;;;;;;12.80;2.30;;;;;;;-146.27;63.43;83083.31;5051033;28;20032;-67
2023/06/02 03:04:46;;;;;;;14.82;2.47;;;;;;;-146.27;63.64;83137.56;5051927;28;20025;-67
2023/06/02 03:07:11;;;;;;;11.95;2.22;;;;;;;-146.27;63.37;83131.53;5047852;28;20032;-68
2023/06/02 03:09:37;;;;;;;7.93;1.88;;;;;;;-146.27;63.59;83149.63;5041039;28;20383;-67
2023/06/02 03:12:02;;;;;;;17.08;2.10;;;;;;;-146.27;63.16;83147.59;5057600;28;20037;-68
2023/06/02 03:14:28;;;;;;;10.13;2.45;;;;;;;-146.27;64.59;83167.69;5050916;28;20048;-68
2023/06/02 03:16:54;;;;;;;17.13;2.97;;;;;;;-146.27;64.16;83155.63;5048925;28;20108;-67
2023/06/02 03:19:24;;;;;;;12.52;2.30;;;;;;;-146.27;63.62;83155.63;5045318;28;20026;-67
2023/06/02 03:21:51;;;;;;;7.80;2.30;;;;;;;-146.27;64.82;83159.66;5063455;28;20082;-68
2023/06/02 03:24:18;;;;;;;14.25;2.30;;;;;;;-146.27;64.55;83151.63;5040966;28;20542;-69
2023/06/02 03:26:44;;;;;;;14.90;2.70;;;;;;;-146.27;64.12;83141.56;5043307;28;20087;-68
2023/06/02 03:29:10;;;;;;;11.20;2.30;;;;;;;-146.27;64.32;83117.47;5041872;28;20047;-68
2023/06/02 03:31:36;;;;;;;12.75;2.88;;;;;;;-146.27;65.40;83167.69;5054817;28;20067;-67
2023/06/02 03:34:03;;;;;;;9.93;1.90;;;;;;;-146.27;64.34;83127.50;5050113;28;20037;-67
2023/06/02 03:36:28;;;;;;;12.02;2.20;;;;;;;-146.27;64.65;83145.59;5057885;28;20481;-67
2023/06/02 03:38:54;;;;;;;13.40;2.92;;;;;;;-146.27;65.26;83057.19;5040568;28;20037;-69
2023/06/02 03:41:19;;;;;;;12.10;2.00;;;;;;;-146.27;64.77;83135.53;5046309;28;20529;-68
2023/06/02 03:43:44;;;;;;;10.80;2.08;;;;;;;-146.27;64.73;83141.56;5051595;28;20109;-68
2023/06/02 03:46:10;;;;;;;10.15;2.50;;;;;;;-146.27;64.01;83135.53;5049554;28;20390;-69
2023/06/02 03:48:35;;;;;;;11.27;2.92;;;;;;;-146.27;63.82;83133.53;5051037;28;20029;-68
2023/06/02 03:51:01;;;;;;;10.48;2.72;;;;;;;-146.27;63.34;83145.59;5063189;28;20105;-69
2023/06/02 03:53:26;;;;;;;14.27;2.25;;;;;;;-146.27;62.79;83159.66;5051903;28;20116;-70
2023/06/02 03:55:51;;;;;;;14.88;3.00;;;;;;;-146.27;63.54;83173.72;5043690;28;20078;-67
2023/06/02 03:58:17;;;;;;;10.20;1.92;;;;;;;-146.27;63.29;83145.59;5049997;28;20033;-70
2023/06/02 04:00:44;;;;;;;8.82;2.58;;;;;;;-146.27;62.68;83167.69;5050284;28;20032;-68
2023/06/02 04:03:11;;;;;;;6.25;1.85;;;;;;;-146.27;63.77;83143.59;5041741;28;20033;-70
2023/06/02 04:05:37;;;;;;;10.98;2.35;;;;;;;-146.27;62.99;83159.66;5033656;28;20382;-68
2023/06/02 04:08:03;;;;;;;14.27;2.70;;;;;;;-146.27;63.19;83157.66;5033767;28;20040;-68
2023/06/02 04:10:30;;;;;;;12.80;3.13;;;;;;;-146.27;63.40;83139.56;5036011;28;20037;-69
2023/06/02 04:12:56;;;;;;;7.32;1.63;;;;;;;-146.27;62.84;83163.69;5049301;28;20524;-68
2023/06/02 04:15:21;;;;;;;11.40;2.78;;;;;;;-146.27;62.78;83129.53;5047316;28;20030;-68
2023/06/02 04:17:47;;;;;;;12.90;2.40;;;;;;;-146.27;62.70;83151.63;5054393;28;20036;-67
2023/06/02 04:20:12;;;;;;;13.73;2.08;;;;;;;-146.27;63.61;83139.56;5047602;28;20024;-68
2023/06/02 04:22:37;;;;;;;12.20;2.50;;;;;;;-146.27;63.52;83139.56;5050000;28;20021;-67
2023/06/02 04:25:03;;;;;;;11.55;2.13;;;;;;;-146.27;63.55;83119.47;5041233;28;20100;-67
2023/06/02 04:27:29;;;;;;;15.27;2.40;;;;;;;-146.27;63.40;83167.69;5045742;28;20032;-68
2023/06/02 04:29:54;;;;;;;10.00;2.33;;;;;;;-146.27;62.55;83169.69;5050195;28;20029;-68
2023/06/02 04:32:20;;;;;;;9.15;2.13;;;;;;;-146.27;63.59;83179.75;5042670;28;20048;-68
2023/06/02 04:34:45;;;;;;;14.23;2.55;;;;;;;-146.27;62.93;83155.63;5046863;28;20037;-68
2023/06/02 04:37:10;;;;;;;15.13;2.72;;;;;;;-146.27;63.04;83139.56;5054463;28;20036;-69
2023/06/02 04:39:36;;;;;;;7.45;1.95;;;;;;;-146.27;62.01;83121.47;5048546;28;20436;-66
2023/06/02 04:42:03;;;;;;;11.10;2.03;;;;;;;-146.27;62.29;83117.47;5041083;28;20025;-68
2023/06/02 04:44:29;;;;;;;11.52;2.45;;;;;;;-146.27;63.00;83183.78;5045708;28;20052;-68
2023/06/02 04:46:54;;;;;;;14.60;2.50;;;;;;;-146.27;62.40;83137.56;5036672;28;20030;-68
2023/06/02 04:49:19;;;;;;;12.75;2.42;;;;;;;-146.27;63.18;83161.66;5048339;28;20388;-68
2023/06/02 04:51:45;;;;;;;8.35;2.47;;;;;;;-146.27;63.56;83234.00;5043974;28;20050;-68
2023/06/02 04:54:10;;;;;;;12.43;2.55;;;;;;;-146.27;63.20;83163.69;5045106;28;20033;-68
2023/06/02 04:56:38;;;;;;;10.20;2.47;;;;;;;-146.27;64.01;83169.69;5036154;28;20025;-68
2023/06/02 04:59:04;;;;;;;14.25;2.20;;;;;;;-146.27;63.09;83163.69;5050331;28;20487;-68
2023/06/02 05:01:29;;;;;;;15.98;3.15;;;;;;;-146.27;63.84;83205.88;5050065;28;20029;-68
2023/06/02 05:03:55;;;;;;;12.88;2.60;;;;;;;-146.27;63.32;83165.69;5051361;28;20048;-68
2023/06/02 05:06:20;;;;;;;13.35;2.90;;;;;;;-146.27;65.11;83135.53;5052691;28;20477;-67
2023/06/02 05:08:46;;;;;;;12.07;2.22;;;;;;;-146.27;64.77;83135.53;5044791;28;20037;-68
2023/06/02 05:11:11;;;;;;;9.15;2.40;;;;;;;-146.27;64.44;83157.66;5049572;28;20025;-68
2023/06/02 05:13:37;;;;;;;9.05;2.63;;;;;;;-146.27;63.99;83175.72;5047800;28;20053;-67
2023/06/02 05:16:03;;;;;;;10.95;2.47;;;;;;;-146.27;64.22;83063.22;5042099;28;20234;-67
2023/06/02 05:18:28;;;;;;;7.78;2.13;;;;;;;-146.27;63.77;83165.69;5044130;28;20039;-67
2023/06/02 05:20:54;;;;;;;13.27;2.70;;;;;;;-146.27;63.40;83159.66;5041146;28;20471;-69
2023/06/02 05:23:19;;;;;;;13.30;2.17;;;;;;;-146.27;62.66;83203.88;5049473;28;20028;-68
2023/06/02 05:25:48;;;;;;;19.85;2.88;;;;;;;-146.27;62.79;83155.63;5045020;28;20052;-67
2023/06/02 05:28:13;;;;;;;11.02;2.20;;;;;;;-146.27;63.62;83165.69;5050850;28;20096;-66
2023/06/02 05:30:39;;;;;;;6.75;2.13;;;;;;;-146.27;62.93;83159.66;5039646;28;20104;-67
2023/06/02 05:33:05;;;;;;;16.88;2.78;;;;;;;-146.27;62.79;83191.81;5053128;28;20230;-70
2023/06/02 05:35:30;;;;;;;15.13;2.67;;;;;;;-146.27;63.15;83217.94;5043903;28;20477;-69
2023/06/02 05:37:56;;;;;;;9.77;2.53;;;;;;;-146.27;63.01;83145.59;5046116;28;20035;-70
2023/06/02 05:40:21;;;;;;;10.13;2.40;;;;;;;-146.27;64.41;83195.81;5040392;28;20094;-68
2023/06/02 05:42:47;;;;;;;9.60;2.33;;;;;;;-146.27;64.13;83153.63;5040969;28;20561;-66
2023/06/02 05:45:12;;;;;;;7.50;2.10;;;;;;;-146.27;63.22;83137.56;5059387;28;20024;-71
2023/06/02 05:47:37;;;;;;;12.98;2.65;;;;;;;-146.27;62.61;83179.75;5056166;28;20025;-67
2023/06/02 05:50:03;;;;;;;9.60;2.58;;;;;;;-146.27;63.27;83129.53;5054060;28;20465;-67
2023/06/02 05:52:28;;;;;;;8.32;1.95;;;;;;;-146.27;64.26;83119.47;5050389;28;20112;-68
2023/06/02 05:54:54;;;;;;;20.08;2.65;;;;;;;-146.27;63.45;83107.41;5043549;28;20088;-67
2023/06/02 05:57:19;;;;;;;7.63;2.08;;;;;;;-146.27;63.59;83123.50;5051421;28;20041;-69
2023/06/02 05:59:45;;;;;;;18.08;2.15;;;;;;;-146.27;64.82;83167.69;5048404;28;20043;-67
2023/06/02 06:02:11;;;;;;;12.43;2.60;;;;;;;-146.27;63.54;83073.25;5034278;28;20602;-69
2023/06/02 06:04:36;;;;;;;11.20;2.60;;;;;;;-146.27;64.62;83129.53;5053535;28;20033;-68
2023/06/02 06:07:02;;;;;;;6.63;1.67;;;;;;;-146.27;63.82;83079.28;5056517;28;20570;-70
2023/06/02 06:09:28;;;;;;;10.23;2.70;;;;;;;-146.27;63.16;83103.41;5058870;28;20428;-69
2023/06/02 06:11:53;;;;;;;9.95;1.95;;;;;;;-146.27;62.54;83071.25;5048110;28;20021;-69
2023/06/02 06:14:18;;;;;;;9.00;2.58;;;;;;;-146.27;62.07;83103.41;5050468;28;20558;-68
2023/06/02 06:16:44;;;;;;;15.57;2.03;;;;;;;-146.27;63.28;83075.28;5050138;28;20095;-69
2023/06/02 06:19:10;;;;;;;12.15;1.92;;;;;;;-146.27;62.49;83091.34;5048278;28;20029;-69
2023/06/02 06:21:36;;;;;;;16.55;2.35;;;;;;;-146.27;62.02;83091.34;5043912;28;20033;-69
2023/06/02 06:24:05;;;;;;;8.02;2.33;;;;;;;-146.27;62.53;83091.34;5039034;28;20025;-70
2023/06/02 06:26:31;;;;;;;14.60;2.28;;;;;;;-146.27;61.91;83095.38;5043480;28;20037;-68
2023/06/02 06:28:56;;;;;;;11.75;2.53;;;;;;;-146.27;62.90;83059.19;5050632;28;20028;-69
2023/06/02 06:31:21;;;;;;;14.32;2.10;;;;;;;-146.27;62.40;83055.19;5045219;28;20108;-71
2023/06/02 06:33:47;;;;;;;13.27;2.33;;;;;;;-146.27;62.20;83105.41;5037168;28;20018;-72
2023/06/02 06:36:12;;;;;;;14.68;2.33;;;;;;;-146.27;62.67;83069.25;5043505;28;20086;-71
2023/06/02 06:38:38;;;;;;;14.23;2.65;;;;;;;-146.27;62.62;83031.06;5051338;28;20036;-71
2023/06/02 06:41:04;;;;;;;13.10;2.92;;;;;;;-146.27;62.51;83029.06;5054627;28;20094;-71
2023/06/02 06:43:29;;;;;;;17.00;3.05;;;;;;;-146.27;63.01;83037.09;5046243;28;20082;-71
2023/06/02 06:45:54;;;;;;;15.15;2.38;;;;;;;-146.27;62.32;83111.44;5051904;28;20140;-71
2023/06/02 06:48:20;;;;;;;16.38;2.30;;;;;;;-146.27;62.00;83039.09;5060392;28;20029;-71
2023/06/02 06:50:47;;;;;;;7.18;2.47;;;;;;;-146.27;62.06;83008.97;5052202;28;20029;-70
2023/06/02 06:53:12;;;;;;;15.32;2.40;;;;;;;-146.27;63.70;83010.97;5050435;28;20056;-71
2023/06/02 06:55:38;;;;;;;9.88;1.83;;;;;;;-146.27;63.44;83023.03;5041896;28;20372;-71
2023/06/02 06:58:03;;;;;;;13.90;2.53;;;;;;;-146.27;63.06;83004.94;5053123;28;20036;-70
2023/06/02 07:00:30;;;;;;;9.68;2.58;;;;;;;-146.27;62.09;82998.94;5053013;28;20025;-71
2023/06/02 07:02:55;;;;;;;5.13;1.83;;;;;;;-146.27;63.41;82990.88;5044094;28;20477;-70
2023/06/02 07:05:21;;;;;;;15.48;2.15;;;;;;;-146.27;61.80;82998.94;5049068;28;20062;-70
2023/06/02 07:07:46;;;;;;;12.10;2.55;;;;;;;-146.27;62.90;82942.66;5034701;28;20108;-71
2023/06/02 07:10:14;;;;;;;7.30;2.35;;;;;;;-146.27;60.86;82986.88;5044145;28;20587;-71
2023/06/02 07:12:39;;;;;;;11.60;3.10;;;;;;;-146.27;61.10;83002.94;5042131;28;20029;-71
2023/06/02 07:15:05;;;;;;;10.55;2.28;;;;;;;-146.27;60.84;82996.91;5046132;28;20074;-70
2023/06/02 07:17:31;;;;;;;12.43;2.25;;;;;;;-146.27;63.14;82954.72;5052551;28;20084;-70
2023/06/02 07:19:56;;;;;;;15.10;3.10;;;;;;;-146.27;61.36;82970.81;5052257;28;20025;-71
2023/06/02 07:22:21;;;;;;;16.60;2.70;;;;;;;-146.27;61.71;82958.75;5051769;28;20029;-76
2023/06/02 07:24:47;;;;;;;12.77;2.60;;;;;;;-146.27;62.17;82970.81;5053445;28;20021;-74
2023/06/02 07:27:13;;;;;;;11.10;2.92;;;;;;;-146.27;62.37;82970.81;5052654;28;20031;-74
2023/06/02 07:29:39;;;;;;;18.67;2.30;;;;;;;-146.27;63.37;82910.53;5042505;28;20032;-73
2023/06/02 07:32:05;;;;;;;14.60;2.88;;;;;;;-146.27;61.63;82926.59;5046240;28;20269;-73
2023/06/02 07:34:30;;;;;;;12.93;2.88;;;;;;;-146.27;61.26;82906.50;5069719;28;20044;-73
2023/06/02 07:36:56;;;;;;;19.70;3.47;;;;;;;-146.27;61.08;82898.47;5058383;28;20112;-75
2023/06/02 07:39:21;;;;;;;16.80;2.50;;;;;;;-146.27;60.43;82844.22;5050576;28;20029;-74
2023/06/02 07:41:46;;;;;;;17.17;2.92;;;;;;;-146.27;61.06;82834.19;5061226;28;20036;-74
2023/06/02 07:44:14;;;;;;;13.65;2.67;;;;;;;-146.27;60.82;82848.25;5050712;28;20036;-75
2023/06/02 07:46:39;;;;;;;10.23;2.22;;;;;;;-146.27;60.59;82798.03;5052165;28;20114;-75
2023/06/02 07:49:05;;;;;;;14.52;2.40;;;;;;;-146.27;59.89;82806.06;5051897;28;20108;-75
2023/06/02 07:51:30;;;;;;;11.38;2.45;;;;;;;-146.27;60.87;82794.00;5044746;28;20393;-74
2023/06/02 07:53:56;;;;;;;11.57;2.55;;;;;;;-146.27;60.11;82794.00;5051663;28;20021;-74
2023/06/02 07:56:21;;;;;;;12.35;2.50;;;;;;;-146.27;59.71;82773.91;5054266;28;20059;-74
2023/06/02 07:58:47;;;;;;;12.73;2.78;;;;;;;-146.27;60.25;82717.66;5048745;28;20029;-74
2023/06/02 08:01:12;;;;;;;14.80;2.63;;;;;;;-146.27;58.96;82715.66;5036329;28;20045;-72
2023/06/02 08:03:39;;;;;;;15.45;3.33;;;;;;;-146.27;58.90;82773.91;5038387;28;20033;-74
2023/06/02 08:06:05;;;;;;;10.70;2.58;;;;;;;-146.27;58.72;82701.59;5031180;28;20028;-74
2023/06/02 08:08:30;;;;;;;10.25;2.90;;;;;;;-146.27;58.14;82693.56;5037847;28;20029;-74
2023/06/02 08:10:57;;;;;;;11.50;2.33;;;;;;;-146.27;57.44;82673.47;5045610;28;20367;-74
2023/06/02 08:13:22;;;;;;;12.27;2.88;;;;;;;-146.27;56.18;82653.38;5031831;28;20422;-74
2023/06/02 08:15:48;;;;;;;16.77;2.50;;;;;;;-146.27;57.04;82717.66;5031654;28;20038;-74
2023/06/02 08:18:14;;;;;;;17.25;2.60;;;;;;;-146.27;55.55;82637.31;5050355;28;20110;-74
2023/06/02 08:20:41;;;;;;;9.13;2.22;;;;;;;-146.27;55.60;82593.09;5048025;28;20100;-74
2023/06/02 08:23:08;;;;;;;9.00;3.08;;;;;;;-146.27;56.18;82601.16;5040119;28;20047;-74
2023/06/02 08:25:37;;;;;;;12.30;2.30;;;;;;;-146.27;57.55;82625.25;5034770;28;20115;-74
2023/06/02 08:28:05;;;;;;;12.90;2.53;;;;;;;-146.27;57.69;82669.44;5031811;28;20225;-74
2023/06/02 08:30:32;;;;;;;11.18;3.47;;;;;;;-146.27;58.29;82571.00;5047483;28;20025;-75
2023/06/02 08:32:59;;;;;;;15.35;2.67;;;;;;;-146.27;58.38;82653.38;5040998;28;20036;-75
2023/06/02 08:35:25;;;;;;;11.50;2.70;;;;;;;-146.27;59.20;82725.69;5049836;28;20063;-74
2023/06/02 08:37:50;;;;;;;15.60;2.47;;;;;;;-146.27;57.78;82657.41;5046044;28;20048;-74
2023/06/02 08:40:19;;;;;;;21.23;4.75;;;;;;;-146.27;59.34;82645.34;5047227;28;20097;-76
2023/06/02 08:42:44;;;;;;;11.95;3.10;;;;;;;-146.27;57.72;82651.38;5039170;28;20115;-72
2023/06/02 08:45:10;;;;;;;14.02;2.63;;;;;;;-146.27;58.24;82661.41;5031322;28;20102;-71
2023/06/02 08:47:42;;;;;;;13.93;2.13;;;;;;;-146.27;60.03;82613.19;5029626;28;20029;-71
2023/06/02 08:50:08;;;;;;;12.63;2.85;;;;;;;-146.27;57.94;82601.16;5033984;28;20029;-71
2023/06/02 08:52:39;;;;;;;10.52;2.78;;;;;;;-146.27;59.10;82601.16;5070570;28;20582;-72
2023/06/02 08:55:05;;;;;;;7.63;2.58;;;;;;;-146.27;58.62;82585.06;5057451;28;20162;-72
2023/06/02 08:57:31;;;;;;;15.55;2.95;;;;;;;-146.27;58.67;82589.09;5032195;28;20079;-72
2023/06/02 08:59:56;;;;;;;17.15;3.20;;;;;;;-146.27;59.41;82577.03;5030859;28;20436;-72
2023/06/02 09:02:21;;;;;;;13.48;2.60;;;;;;;-146.27;59.75;82528.81;5050646;28;20393;-72
2023/06/02 09:04:47;;;;;;;12.48;2.63;;;;;;;-146.27;59.64;82562.97;5050795;28;20028;-72
2023/06/02 09:07:12;;;;;;;13.75;4.53;;;;;;;-146.27;60.62;82589.09;5050628;28;20043;-72
2023/06/02 09:09:39;;;;;;;15.55;3.22;;;;;;;-146.27;60.27;82623.25;5050386;28;20556;-71
2023/06/02 09:12:05;;;;;;;11.13;3.20;;;;;;;-146.27;60.25;82593.09;5048045;28;20036;-71
2023/06/02 09:14:30;;;;;;;12.93;2.60;;;;;;;-146.27;60.23;82633.28;5050416;28;20021;-71
2023/06/02 09:16:55;;;;;;;15.95;2.97;;;;;;;-146.27;60.98;82655.38;5050356;28;20021;-71
2023/06/02 09:19:21;;;;;;;10.75;2.75;;;;;;;-146.27;62.47;82617.22;5054792;28;20404;-71
2023/06/02 09:21:47;;;;;;;21.88;3.63;;;;;;;-146.27;62.40;82631.28;5045333;28;20021;-71
2023/06/02 09:24:30;;;;;;;10.93;2.55;;;;;;;-146.27;62.65;82629.28;5050006;28;20036;-71
2023/06/02 09:26:55;;;;;;;13.48;2.72;;;;;;;-146.27;62.12;82645.34;5064934;28;20016;-72
2023/06/02 09:29:21;;;;;;;14.80;3.00;;;;;;;-146.27;63.09;82611.19;5050994;28;20542;-72
2023/06/02 09:31:52;;;;;;;17.52;3.03;;;;;;;-146.27;64.74;82609.19;5054110;28;20083;-72
2023/06/02 09:34:22;;;;;;;12.25;2.95;;;;;;;-146.27;62.96;82615.22;5070881;28;20029;-73
2023/06/02 09:36:52;;;;;;;14.63;2.75;;;;;;;-146.27;62.50;82637.31;5070377;28;20480;-72
2023/06/02 09:39:35;;;;;;;16.17;3.90;;;;;;;-146.27;62.50;82605.16;5066563;28;20113;-71
2023/06/02 09:42:01;;;;;;;13.30;2.92;;;;;;;-146.27;63.04;82631.28;5048272;28;20485;-72
2023/06/02 09:44:27;;;;;;;16.10;3.20;;;;;;;-146.27;65.21;82625.25;5056008;28;20032;-71
2023/06/02 09:46:55;;;;;;;8.30;2.60;;;;;;;-146.27;65.53;82613.19;5035246;28;20229;-72
2023/06/02 09:49:21;;;;;;;19.80;3.65;;;;;;;-146.27;65.04;82621.22;5036525;28;20112;-73
2023/06/02 09:51:46;;;;;;;21.05;3.50;;;;;;;-146.27;64.83;82657.41;5047116;28;20108;-73
2023/06/02 09:54:12;;;;;;;21.60;3.05;;;;;;;-146.27;64.73;82645.34;5038489;28;20037;-72
2023/06/02 09:56:38;;;;;;;27.45;5.68;;;;;;;-146.27;65.62;82623.25;5055051;28;20028;-72
2023/06/02 09:59:05;;;;;;;16.50;3.67;;;;;;;-146.27;66.83;82597.13;5053005;28;20028;-72
2023/06/02 10:01:34;;;;;;;17.02;3.53;;;;;;;-146.27;67.13;82677.47;5039492;28;20104;-75
2023/06/02 10:04:01;;;;;;;13.77;3.70;;;;;;;-146.27;65.26;82623.25;5044945;28;20037;-75
2023/06/02 10:06:44;;;;;;;23.30;3.80;;;;;;;-146.27;66.65;82593.09;5074798;28;20028;-75
2023/06/02 10:09:12;;;;;;;14.40;3.22;;;;;;;-146.27;66.17;82609.19;5048453;28;20079;-74
2023/06/02 10:12:13;;;;;;;13.73;3.22;;;;;;;-146.27;67.06;82605.16;5052468;28;20060;-74
2023/06/02 10:14:58;;;;;;;13.63;4.10;;;;;;;-146.27;66.19;82548.91;5027465;28;20053;-74
2023/06/02 10:17:34;;;;;;;13.27;3.13;;;;;;;-146.27;65.95;82466.56;5045513;28;20084;-74
2023/06/02 10:20:08;;;;;;;20.20;2.92;;;;;;;-146.27;64.71;82496.69;5050303;28;20145;-75
2023/06/02 10:22:39;;;;;;;;;;;;;;;-146.27;65.12;82506.72;5053518;28;20163;-74
2023/06/02 10:25:26;;;;;;;14.00;2.78;;;;;;;-146.27;64.54;82512.75;5051959;28;19966;-74
2023/06/02 10:27:52;;;;;;;14.45;3.45;;;;;;;-146.27;65.85;82466.56;5035646;28;20074;-74
2023/06/02 10:30:20;;;;;;;19.38;3.10;;;;;;;-146.27;65.49;82454.50;5048245;28;20103;-75
2023/06/02 10:32:50;;;;;;;18.00;3.72;;;;;;;-146.27;66.39;82492.66;5047811;28;20448;-74
2023/06/02 10:35:17;;;;;;;15.68;3.13;;;;;;;-146.27;65.51;82464.53;5034876;28;20033;-74
2023/06/02 10:37:43;;;;;;;14.90;3.58;;;;;;;-146.27;64.85;82428.38;5033198;28;20485;-75
2023/06/02 10:40:10;;;;;;;13.75;3.72;;;;;;;-146.27;66.09;82436.41;5054972;28;20516;-74
2023/06/02 10:42:37;;;;;;;14.07;2.90;;;;;;;-146.27;64.34;82414.31;5052492;28;20040;-73
2023/06/02 10:45:17;;;;;;;20.23;3.75;;;;;;;-146.27;65.09;82404.28;5055712;28;20024;-73
2023/06/02 10:47:43;;;;;;;26.65;3.70;;;;;;;-146.27;63.65;82444.44;5058554;28;20035;-75
2023/06/02 10:50:14;;;;;;;16.83;4.28;;;;;;;-146.27;63.86;82408.28;5062197;28;20540;-75
2023/06/02 10:52:58;;;;;;;11.05;2.97;;;;;;;-146.27;65.23;82410.31;5052346;28;20078;-73
2023/06/02 10:55:25;;;;;;;17.95;3.70;;;;;;;-146.27;66.17;82474.59;5057269;28;20032;-73
2023/06/02 10:58:12;;;;;;;11.93;3.22;;;;;;;-146.27;65.54;82333.97;5043142;28;20029;-73
2023/06/02 11:00:43;;;;;;;17.38;3.35;;;;;;;-146.27;64.28;82364.09;5055138;28;20380;-74
2023/06/02 11:03:17;;;;;;;12.70;3.28;;;;;;;-146.27;63.15;82392.22;5034071;28;20028;-74
2023/06/02 11:05:47;;;;;;;17.88;3.83;;;;;;;-146.27;65.09;82344.00;5035973;28;20104;-74
2023/06/02 11:08:18;;;;;;;16.88;3.45;;;;;;;-146.27;63.23;82331.97;5032559;28;20108;-72
2023/06/02 11:10:45;;;;;;;16.45;3.20;;;;;;;-146.27;64.86;82315.88;5048331;28;20029;-68